sensor_id;sensor_type;location;lat;lon;timestamp;temperature;humidity
3758;DHT22;1894;51.038;13.692;2023-11-18T00:02:06;5.20;99.90
3758;DHT22;1894;51.038;13.692;2023-11-18T00:04:34;5.10;99.90
3758;DHT22;1894;51.038;13.692;2023-11-18T00:07:02;5.20;99.90
3758;DHT22;1894;51.038;13.692;2023-11-18T00:09:30;5.10;99.90
3758;DHT22;1894;51.038;13.692;2023-11-18T00:11:58;5.10;99.90
3758;DHT22;1894;51.038;13.692;2023-11-18T00:14:25;5.00;99.90
3758;DHT22;1894;51.038;13.692;2023-11-18T00:16:52;5.10;99.90
3758;DHT22;1894;51.038;13.692;2023-11-18T00:19:19;5.20;99.90
3758;DHT22;1894;51.038;13.692;2023-11-18T00:21:46;5.20;99.90
3758;DHT22;1894;51.038;13.692;2023-11-18T00:24:14;5.20;99.90
3758;DHT22;1894;51.038;13.692;2023-11-18T00:26:41;5.00;99.90
3758;DHT22;1894;51.038;13.692;2023-11-18T00:29:09;5.10;99.90
3758;DHT22;1894;51.038;13.692;2023-11-18T00:31:36;5.00;99.90
3758;DHT22;1894;51.038;13.692;2023-11-18T00:34:04;5.00;99.90
3758;DHT22;1894;51.038;13.692;2023-11-18T00:36:31;5.00;99.90
3758;DHT22;1894;51.038;13.692;2023-11-18T00:38:58;5.00;99.90
3758;DHT22;1894;51.038;13.692;2023-11-18T00:41:26;5.00;99.90
3758;DHT22;1894;51.038;13.692;2023-11-18T00:43:53;5.00;99.90
3758;DHT22;1894;51.038;13.692;2023-11-18T00:46:21;5.10;99.90
3758;DHT22;1894;51.038;13.692;2023-11-18T00:48:49;5.00;99.90
3758;DHT22;1894;51.038;13.692;2023-11-18T00:51:16;4.90;99.90
3758;DHT22;1894;51.038;13.692;2023-11-18T00:53:45;4.70;99.90
3758;DHT22;1894;51.038;13.692;2023-11-18T00:56:15;4.80;99.90
3758;DHT22;1894;51.038;13.692;2023-11-18T00:58:44;4.80;99.90
3758;DHT22;1894;51.038;13.692;2023-11-18T01:01:12;4.80;99.90
3758;DHT22;1894;51.038;13.692;2023-11-18T01:03:39;4.80;99.90
3758;DHT22;1894;51.038;13.692;2023-11-18T01:06:06;4.70;99.90
3758;DHT22;1894;51.038;13.692;2023-11-18T01:08:34;4.80;99.90
3758;DHT22;1894;51.038;13.692;2023-11-18T01:11:01;4.80;99.90
3758;DHT22;1894;51.038;13.692;2023-11-18T01:13:29;4.70;99.90
3758;DHT22;1894;51.038;13.692;2023-11-18T01:15:56;4.80;99.90
3758;DHT22;1894;51.038;13.692;2023-11-18T01:18:24;4.70;99.90
3758;DHT22;1894;51.038;13.692;2023-11-18T01:20:51;4.70;99.90
3758;DHT22;1894;51.038;13.692;2023-11-18T01:23:19;4.70;99.90
3758;DHT22;1894;51.038;13.692;2023-11-18T01:25:46;4.80;99.90
3758;DHT22;1894;51.038;13.692;2023-11-18T01:28:13;4.80;99.90
3758;DHT22;1894;51.038;13.692;2023-11-18T01:30:42;4.90;99.90
3758;DHT22;1894;51.038;13.692;2023-11-18T01:33:11;4.80;99.90
3758;DHT22;1894;51.038;13.692;2023-11-18T01:35:39;4.80;99.90
3758;DHT22;1894;51.038;13.692;2023-11-18T01:38:06;4.70;99.90
3758;DHT22;1894;51.038;13.692;2023-11-18T01:40:34;4.80;99.90
3758;DHT22;1894;51.038;13.692;2023-11-18T01:43:01;4.80;99.90
3758;DHT22;1894;51.038;13.692;2023-11-18T01:45:29;4.80;99.90
3758;DHT22;1894;51.038;13.692;2023-11-18T01:47:57;4.80;99.90
3758;DHT22;1894;51.038;13.692;2023-11-18T01:50:24;4.80;99.90
3758;DHT22;1894;51.038;13.692;2023-11-18T01:52:52;4.70;99.90
3758;DHT22;1894;51.038;13.692;2023-11-18T01:55:20;4.70;99.90
3758;DHT22;1894;51.038;13.692;2023-11-18T01:57:48;4.80;99.90
3758;DHT22;1894;51.038;13.692;2023-11-18T02:00:18;4.70;99.90
3758;DHT22;1894;51.038;13.692;2023-11-18T02:02:45;4.80;99.90
3758;DHT22;1894;51.038;13.692;2023-11-18T02:05:13;4.80;99.90
3758;DHT22;1894;51.038;13.692;2023-11-18T02:07:41;4.80;99.90
3758;DHT22;1894;51.038;13.692;2023-11-18T02:10:09;4.80;99.90
3758;DHT22;1894;51.038;13.692;2023-11-18T02:15:12;4.80;99.90
3758;DHT22;1894;51.038;13.692;2023-11-18T02:17:41;4.90;99.90
3758;DHT22;1894;51.038;13.692;2023-11-18T02:20:12;5.00;99.90
3758;DHT22;1894;51.038;13.692;2023-11-18T02:22:43;4.90;99.90
3758;DHT22;1894;51.038;13.692;2023-11-18T02:25:17;4.90;99.90
3758;DHT22;1894;51.038;13.692;2023-11-18T02:27:45;4.90;99.90
3758;DHT22;1894;51.038;13.692;2023-11-18T02:30:16;4.90;99.90
3758;DHT22;1894;51.038;13.692;2023-11-18T02:35:46;4.80;99.90
3758;DHT22;1894;51.038;13.692;2023-11-18T02:38:22;4.80;99.90
3758;DHT22;1894;51.038;13.692;2023-11-18T02:40:59;4.90;99.90
3758;DHT22;1894;51.038;13.692;2023-11-18T02:43:32;4.90;99.90
3758;DHT22;1894;51.038;13.692;2023-11-18T02:46:00;5.00;99.90
3758;DHT22;1894;51.038;13.692;2023-11-18T02:48:28;5.10;99.90
3758;DHT22;1894;51.038;13.692;2023-11-18T02:50:56;5.20;99.90
3758;DHT22;1894;51.038;13.692;2023-11-18T02:53:23;5.20;99.90
3758;DHT22;1894;51.038;13.692;2023-11-18T02:55:51;5.30;99.90
3758;DHT22;1894;51.038;13.692;2023-11-18T02:58:19;5.20;99.90
3758;DHT22;1894;51.038;13.692;2023-11-18T03:00:47;5.20;99.90
3758;DHT22;1894;51.038;13.692;2023-11-18T03:03:15;5.00;99.90
3758;DHT22;1894;51.038;13.692;2023-11-18T03:05:43;5.00;99.90
3758;DHT22;1894;51.038;13.692;2023-11-18T03:08:12;4.90;99.90
3758;DHT22;1894;51.038;13.692;2023-11-18T03:10:40;4.90;99.90
3758;DHT22;1894;51.038;13.692;2023-11-18T03:13:11;4.90;99.90
3758;DHT22;1894;51.038;13.692;2023-11-18T03:15:40;4.90;99.90
3758;DHT22;1894;51.038;13.692;2023-11-18T03:18:08;4.90;99.90
3758;DHT22;1894;51.038;13.692;2023-11-18T03:20:35;5.00;99.90
3758;DHT22;1894;51.038;13.692;2023-11-18T03:23:02;4.90;99.90
3758;DHT22;1894;51.038;13.692;2023-11-18T03:25:30;5.00;99.90
3758;DHT22;1894;51.038;13.692;2023-11-18T03:27:57;5.10;99.90
3758;DHT22;1894;51.038;13.692;2023-11-18T03:30:24;4.90;99.90
3758;DHT22;1894;51.038;13.692;2023-11-18T03:32:52;4.80;99.90
3758;DHT22;1894;51.038;13.692;2023-11-18T03:35:19;4.70;99.90
3758;DHT22;1894;51.038;13.692;2023-11-18T03:37:46;4.70;99.90
3758;DHT22;1894;51.038;13.692;2023-11-18T03:40:14;4.60;99.90
3758;DHT22;1894;51.038;13.692;2023-11-18T03:42:42;4.50;99.90
3758;DHT22;1894;51.038;13.692;2023-11-18T03:45:09;4.60;99.90
3758;DHT22;1894;51.038;13.692;2023-11-18T03:47:37;4.60;99.90
3758;DHT22;1894;51.038;13.692;2023-11-18T03:50:05;4.50;99.90
3758;DHT22;1894;51.038;13.692;2023-11-18T03:52:38;4.50;99.90
3758;DHT22;1894;51.038;13.692;2023-11-18T03:55:06;4.40;99.90
3758;DHT22;1894;51.038;13.692;2023-11-18T03:57:35;4.40;99.90
3758;DHT22;1894;51.038;13.692;2023-11-18T04:00:03;4.30;99.90
3758;DHT22;1894;51.038;13.692;2023-11-18T04:02:36;4.30;99.90
3758;DHT22;1894;51.038;13.692;2023-11-18T04:05:03;4.20;99.90
3758;DHT22;1894;51.038;13.692;2023-11-18T04:07:31;4.20;99.90
3758;DHT22;1894;51.038;13.692;2023-11-18T04:09:58;4.30;99.90
3758;DHT22;1894;51.038;13.692;2023-11-18T04:12:27;4.30;99.90
3758;DHT22;1894;51.038;13.692;2023-11-18T04:14:54;4.30;99.90
3758;DHT22;1894;51.038;13.692;2023-11-18T04:17:21;4.30;99.90
3758;DHT22;1894;51.038;13.692;2023-11-18T04:19:49;4.30;99.90
3758;DHT22;1894;51.038;13.692;2023-11-18T04:22:16;4.30;99.90
3758;DHT22;1894;51.038;13.692;2023-11-18T04:24:44;4.30;99.90
3758;DHT22;1894;51.038;13.692;2023-11-18T04:27:12;4.30;99.90
3758;DHT22;1894;51.038;13.692;2023-11-18T04:29:39;4.20;99.90
3758;DHT22;1894;51.038;13.692;2023-11-18T04:32:07;4.30;99.90
3758;DHT22;1894;51.038;13.692;2023-11-18T04:34:37;4.40;99.90
3758;DHT22;1894;51.038;13.692;2023-11-18T04:37:05;4.50;99.90
3758;DHT22;1894;51.038;13.692;2023-11-18T04:39:33;4.70;99.90
3758;DHT22;1894;51.038;13.692;2023-11-18T04:42:00;4.60;99.90
3758;DHT22;1894;51.038;13.692;2023-11-18T04:44:28;4.60;99.90
3758;DHT22;1894;51.038;13.692;2023-11-18T04:46:58;4.60;99.90
3758;DHT22;1894;51.038;13.692;2023-11-18T04:49:26;4.60;99.90
3758;DHT22;1894;51.038;13.692;2023-11-18T04:51:54;4.60;99.90
3758;DHT22;1894;51.038;13.692;2023-11-18T04:54:21;4.60;99.90
3758;DHT22;1894;51.038;13.692;2023-11-18T04:56:48;4.50;99.90
3758;DHT22;1894;51.038;13.692;2023-11-18T04:59:15;4.60;99.90
3758;DHT22;1894;51.038;13.692;2023-11-18T05:01:44;4.60;99.90
3758;DHT22;1894;51.038;13.692;2023-11-18T05:04:11;4.60;99.90
3758;DHT22;1894;51.038;13.692;2023-11-18T05:06:39;4.60;99.90
3758;DHT22;1894;51.038;13.692;2023-11-18T05:09:06;4.70;99.90
3758;DHT22;1894;51.038;13.692;2023-11-18T05:11:34;4.80;99.90
3758;DHT22;1894;51.038;13.692;2023-11-18T05:14:02;4.70;99.90
3758;DHT22;1894;51.038;13.692;2023-11-18T05:16:30;4.80;99.90
3758;DHT22;1894;51.038;13.692;2023-11-18T05:18:58;4.80;99.90
3758;DHT22;1894;51.038;13.692;2023-11-18T05:21:25;4.70;99.90
3758;DHT22;1894;51.038;13.692;2023-11-18T05:23:52;4.60;99.90
3758;DHT22;1894;51.038;13.692;2023-11-18T05:26:20;4.70;99.90
3758;DHT22;1894;51.038;13.692;2023-11-18T05:28:47;4.70;99.90
3758;DHT22;1894;51.038;13.692;2023-11-18T05:31:15;4.80;99.90
3758;DHT22;1894;51.038;13.692;2023-11-18T05:33:45;4.70;99.90
3758;DHT22;1894;51.038;13.692;2023-11-18T05:36:18;4.70;99.90
3758;DHT22;1894;51.038;13.692;2023-11-18T05:38:56;4.70;99.90
3758;DHT22;1894;51.038;13.692;2023-11-18T05:41:24;4.60;99.90
3758;DHT22;1894;51.038;13.692;2023-11-18T05:43:58;4.60;99.90
3758;DHT22;1894;51.038;13.692;2023-11-18T05:46:26;4.70;99.90
3758;DHT22;1894;51.038;13.692;2023-11-18T05:48:57;4.70;99.90
3758;DHT22;1894;51.038;13.692;2023-11-18T05:51:26;4.60;99.90
3758;DHT22;1894;51.038;13.692;2023-11-18T05:53:55;4.70;99.90
3758;DHT22;1894;51.038;13.692;2023-11-18T05:56:22;4.60;99.90
3758;DHT22;1894;51.038;13.692;2023-11-18T05:58:51;4.70;99.90
3758;DHT22;1894;51.038;13.692;2023-11-18T06:01:22;4.70;99.90
3758;DHT22;1894;51.038;13.692;2023-11-18T06:03:50;4.80;99.90
3758;DHT22;1894;51.038;13.692;2023-11-18T06:06:18;4.90;99.90
3758;DHT22;1894;51.038;13.692;2023-11-18T06:08:50;4.80;99.90
3758;DHT22;1894;51.038;13.692;2023-11-18T06:11:19;4.70;99.90
3758;DHT22;1894;51.038;13.692;2023-11-18T06:13:51;4.70;99.90
3758;DHT22;1894;51.038;13.692;2023-11-18T06:16:20;4.80;99.90
3758;DHT22;1894;51.038;13.692;2023-11-18T06:18:50;4.70;99.90
3758;DHT22;1894;51.038;13.692;2023-11-18T06:21:20;4.70;99.90
3758;DHT22;1894;51.038;13.692;2023-11-18T06:23:51;4.80;99.90
3758;DHT22;1894;51.038;13.692;2023-11-18T06:26:18;4.60;99.90
3758;DHT22;1894;51.038;13.692;2023-11-18T06:28:47;4.50;99.90
3758;DHT22;1894;51.038;13.692;2023-11-18T06:31:16;4.50;99.90
3758;DHT22;1894;51.038;13.692;2023-11-18T06:33:45;4.50;99.90
3758;DHT22;1894;51.038;13.692;2023-11-18T06:38:44;4.60;99.90
3758;DHT22;1894;51.038;13.692;2023-11-18T06:41:13;4.70;99.90
3758;DHT22;1894;51.038;13.692;2023-11-18T06:43:43;4.80;99.90
3758;DHT22;1894;51.038;13.692;2023-11-18T06:46:30;4.90;99.90
3758;DHT22;1894;51.038;13.692;2023-11-18T06:49:03;4.90;99.90
3758;DHT22;1894;51.038;13.692;2023-11-18T06:51:35;4.80;99.90
3758;DHT22;1894;51.038;13.692;2023-11-18T06:54:07;4.90;99.90
3758;DHT22;1894;51.038;13.692;2023-11-18T06:56:42;4.90;99.90
3758;DHT22;1894;51.038;13.692;2023-11-18T06:59:12;4.80;99.90
3758;DHT22;1894;51.038;13.692;2023-11-18T07:01:41;4.90;99.90
3758;DHT22;1894;51.038;13.692;2023-11-18T07:04:13;4.90;99.90
3758;DHT22;1894;51.038;13.692;2023-11-18T07:06:42;4.90;99.90
3758;DHT22;1894;51.038;13.692;2023-11-18T07:09:10;4.90;99.90
3758;DHT22;1894;51.038;13.692;2023-11-18T07:11:45;4.80;99.90
3758;DHT22;1894;51.038;13.692;2023-11-18T07:14:14;4.80;99.90
3758;DHT22;1894;51.038;13.692;2023-11-18T07:16:42;4.70;99.90
3758;DHT22;1894;51.038;13.692;2023-11-18T07:19:11;4.70;99.90
3758;DHT22;1894;51.038;13.692;2023-11-18T07:21:48;4.70;99.90
3758;DHT22;1894;51.038;13.692;2023-11-18T07:24:16;4.70;99.90
3758;DHT22;1894;51.038;13.692;2023-11-18T07:26:47;4.70;99.90
3758;DHT22;1894;51.038;13.692;2023-11-18T07:29:16;4.60;99.90
3758;DHT22;1894;51.038;13.692;2023-11-18T07:31:43;4.60;99.90
3758;DHT22;1894;51.038;13.692;2023-11-18T07:34:12;4.60;99.90
3758;DHT22;1894;51.038;13.692;2023-11-18T07:36:40;4.80;99.90
3758;DHT22;1894;51.038;13.692;2023-11-18T07:39:07;5.00;99.90
3758;DHT22;1894;51.038;13.692;2023-11-18T07:41:43;5.10;99.90
3758;DHT22;1894;51.038;13.692;2023-11-18T07:44:11;5.20;99.90
3758;DHT22;1894;51.038;13.692;2023-11-18T07:46:40;5.40;99.90
3758;DHT22;1894;51.038;13.692;2023-11-18T07:49:09;5.50;99.90
3758;DHT22;1894;51.038;13.692;2023-11-18T07:51:38;5.40;99.90
3758;DHT22;1894;51.038;13.692;2023-11-18T07:54:07;5.40;99.90
3758;DHT22;1894;51.038;13.692;2023-11-18T07:56:37;5.50;99.90
3758;DHT22;1894;51.038;13.692;2023-11-18T07:59:04;5.60;99.90
3758;DHT22;1894;51.038;13.692;2023-11-18T08:01:35;5.70;99.90
3758;DHT22;1894;51.038;13.692;2023-11-18T08:04:02;5.60;99.90
3758;DHT22;1894;51.038;13.692;2023-11-18T08:06:33;5.60;99.90
3758;DHT22;1894;51.038;13.692;2023-11-18T08:09:00;5.40;99.90
3758;DHT22;1894;51.038;13.692;2023-11-18T08:11:29;5.40;99.90
3758;DHT22;1894;51.038;13.692;2023-11-18T08:13:56;5.50;99.90
3758;DHT22;1894;51.038;13.692;2023-11-18T08:16:25;5.50;99.90
3758;DHT22;1894;51.038;13.692;2023-11-18T08:18:54;5.40;99.90
3758;DHT22;1894;51.038;13.692;2023-11-18T08:21:22;5.10;99.90
3758;DHT22;1894;51.038;13.692;2023-11-18T08:23:49;5.20;99.90
3758;DHT22;1894;51.038;13.692;2023-11-18T08:26:19;5.20;99.90
3758;DHT22;1894;51.038;13.692;2023-11-18T08:28:47;5.30;99.90
3758;DHT22;1894;51.038;13.692;2023-11-18T08:31:14;5.20;99.90
3758;DHT22;1894;51.038;13.692;2023-11-18T08:33:44;5.20;99.90
3758;DHT22;1894;51.038;13.692;2023-11-18T08:36:13;5.40;99.90
3758;DHT22;1894;51.038;13.692;2023-11-18T08:38:40;5.40;99.90
3758;DHT22;1894;51.038;13.692;2023-11-18T08:41:11;5.50;99.90
3758;DHT22;1894;51.038;13.692;2023-11-18T08:43:39;5.60;99.90
3758;DHT22;1894;51.038;13.692;2023-11-18T08:46:08;5.70;99.90
3758;DHT22;1894;51.038;13.692;2023-11-18T08:48:35;5.80;99.90
3758;DHT22;1894;51.038;13.692;2023-11-18T08:51:03;6.00;99.90
3758;DHT22;1894;51.038;13.692;2023-11-18T08:53:32;5.80;99.90
3758;DHT22;1894;51.038;13.692;2023-11-18T08:56:08;5.70;99.90
3758;DHT22;1894;51.038;13.692;2023-11-18T08:58:42;5.70;99.90
3758;DHT22;1894;51.038;13.692;2023-11-18T09:01:11;5.90;99.90
3758;DHT22;1894;51.038;13.692;2023-11-18T09:03:43;6.00;99.90
3758;DHT22;1894;51.038;13.692;2023-11-18T09:06:10;6.20;99.90
3758;DHT22;1894;51.038;13.692;2023-11-18T09:08:46;6.20;99.90
3758;DHT22;1894;51.038;13.692;2023-11-18T09:11:21;6.20;99.90
3758;DHT22;1894;51.038;13.692;2023-11-18T09:13:50;6.20;99.90
3758;DHT22;1894;51.038;13.692;2023-11-18T09:16:22;6.20;99.90
3758;DHT22;1894;51.038;13.692;2023-11-18T09:18:49;6.40;99.90
3758;DHT22;1894;51.038;13.692;2023-11-18T09:21:17;6.50;99.90
3758;DHT22;1894;51.038;13.692;2023-11-18T09:23:52;6.50;99.90
3758;DHT22;1894;51.038;13.692;2023-11-18T09:26:19;6.40;99.90
3758;DHT22;1894;51.038;13.692;2023-11-18T09:28:48;6.70;99.90
3758;DHT22;1894;51.038;13.692;2023-11-18T09:31:17;6.70;99.90
3758;DHT22;1894;51.038;13.692;2023-11-18T09:33:44;6.80;99.90
3758;DHT22;1894;51.038;13.692;2023-11-18T09:36:19;6.80;99.90
3758;DHT22;1894;51.038;13.692;2023-11-18T09:38:47;7.00;99.90
3758;DHT22;1894;51.038;13.692;2023-11-18T09:41:16;6.70;99.90
3758;DHT22;1894;51.038;13.692;2023-11-18T09:43:44;6.80;99.90
3758;DHT22;1894;51.038;13.692;2023-11-18T09:46:14;7.00;99.90
3758;DHT22;1894;51.038;13.692;2023-11-18T09:48:44;7.30;99.90
3758;DHT22;1894;51.038;13.692;2023-11-18T09:51:24;7.10;99.90
3758;DHT22;1894;51.038;13.692;2023-11-18T09:53:59;7.30;99.90
3758;DHT22;1894;51.038;13.692;2023-11-18T10:02:12;7.20;99.90
3758;DHT22;1894;51.038;13.692;2023-11-18T10:04:41;7.00;99.90
3758;DHT22;1894;51.038;13.692;2023-11-18T10:07:09;7.10;99.90
3758;DHT22;1894;51.038;13.692;2023-11-18T10:09:38;7.40;99.90
3758;DHT22;1894;51.038;13.692;2023-11-18T10:12:09;7.60;99.90
3758;DHT22;1894;51.038;13.692;2023-11-18T10:14:41;8.00;99.90
3758;DHT22;1894;51.038;13.692;2023-11-18T10:17:10;8.10;99.90
3758;DHT22;1894;51.038;13.692;2023-11-18T10:19:52;8.00;99.90
3758;DHT22;1894;51.038;13.692;2023-11-18T10:22:29;8.40;99.90
3758;DHT22;1894;51.038;13.692;2023-11-18T10:25:00;7.90;99.90
3758;DHT22;1894;51.038;13.692;2023-11-18T10:27:29;7.90;99.90
3758;DHT22;1894;51.038;13.692;2023-11-18T10:29:57;8.30;99.90
3758;DHT22;1894;51.038;13.692;2023-11-18T10:32:30;8.30;99.90
3758;DHT22;1894;51.038;13.692;2023-11-18T10:35:04;8.40;99.90
3758;DHT22;1894;51.038;13.692;2023-11-18T10:37:37;8.10;99.90
3758;DHT22;1894;51.038;13.692;2023-11-18T10:40:11;8.00;99.90
3758;DHT22;1894;51.038;13.692;2023-11-18T10:42:42;8.10;99.90
3758;DHT22;1894;51.038;13.692;2023-11-18T10:45:23;8.10;99.90
3758;DHT22;1894;51.038;13.692;2023-11-18T10:47:54;8.30;99.90
3758;DHT22;1894;51.038;13.692;2023-11-18T10:50:25;8.60;99.90
3758;DHT22;1894;51.038;13.692;2023-11-18T10:53:01;9.00;99.90
3758;DHT22;1894;51.038;13.692;2023-11-18T10:55:37;9.30;99.90
3758;DHT22;1894;51.038;13.692;2023-11-18T10:58:05;9.20;99.90
3758;DHT22;1894;51.038;13.692;2023-11-18T11:03:16;8.60;99.90
3758;DHT22;1894;51.038;13.692;2023-11-18T11:05:45;8.40;99.90
3758;DHT22;1894;51.038;13.692;2023-11-18T11:08:14;8.10;99.90
3758;DHT22;1894;51.038;13.692;2023-11-18T11:10:57;8.00;99.90
3758;DHT22;1894;51.038;13.692;2023-11-18T11:13:29;8.10;99.90
3758;DHT22;1894;51.038;13.692;2023-11-18T11:15:57;8.10;99.90
3758;DHT22;1894;51.038;13.692;2023-11-18T11:18:28;8.50;99.90
3758;DHT22;1894;51.038;13.692;2023-11-18T11:21:15;8.30;99.90
3758;DHT22;1894;51.038;13.692;2023-11-18T11:23:55;8.70;99.90
3758;DHT22;1894;51.038;13.692;2023-11-18T11:35:55;10.60;99.90
3758;DHT22;1894;51.038;13.692;2023-11-18T11:38:26;10.50;99.90
3758;DHT22;1894;51.038;13.692;2023-11-18T11:40:57;10.30;99.90
3758;DHT22;1894;51.038;13.692;2023-11-18T11:43:27;9.30;99.90
3758;DHT22;1894;51.038;13.692;2023-11-18T11:45:56;9.30;99.90
3758;DHT22;1894;51.038;13.692;2023-11-18T11:48:24;8.70;99.90
3758;DHT22;1894;51.038;13.692;2023-11-18T11:53:55;8.30;99.90
3758;DHT22;1894;51.038;13.692;2023-11-18T11:56:57;8.40;99.90
3758;DHT22;1894;51.038;13.692;2023-11-18T12:02:13;8.60;99.90
3758;DHT22;1894;51.038;13.692;2023-11-18T12:04:47;8.70;99.90
3758;DHT22;1894;51.038;13.692;2023-11-18T12:07:20;8.60;99.90
3758;DHT22;1894;51.038;13.692;2023-11-18T12:09:50;8.10;99.90
3758;DHT22;1894;51.038;13.692;2023-11-18T12:12:21;8.00;99.90
3758;DHT22;1894;51.038;13.692;2023-11-18T12:14:57;8.00;99.90
3758;DHT22;1894;51.038;13.692;2023-11-18T12:18:09;8.00;99.90
3758;DHT22;1894;51.038;13.692;2023-11-18T12:20:44;8.00;99.90
3758;DHT22;1894;51.038;13.692;2023-11-18T12:23:15;8.80;99.90
3758;DHT22;1894;51.038;13.692;2023-11-18T12:25:46;9.90;99.90
3758;DHT22;1894;51.038;13.692;2023-11-18T12:28:17;10.20;99.90
3758;DHT22;1894;51.038;13.692;2023-11-18T12:30:48;10.00;99.90
3758;DHT22;1894;51.038;13.692;2023-11-18T12:33:19;9.60;99.90
3758;DHT22;1894;51.038;13.692;2023-11-18T12:41:37;8.80;99.90
3758;DHT22;1894;51.038;13.692;2023-11-18T12:44:29;9.00;99.90
3758;DHT22;1894;51.038;13.692;2023-11-18T12:47:03;9.10;99.90
3758;DHT22;1894;51.038;13.692;2023-11-18T12:49:42;9.10;99.90
3758;DHT22;1894;51.038;13.692;2023-11-18T12:52:11;9.20;99.90
3758;DHT22;1894;51.038;13.692;2023-11-18T12:54:41;10.60;99.90
3758;DHT22;1894;51.038;13.692;2023-11-18T12:57:11;12.00;99.90
3758;DHT22;1894;51.038;13.692;2023-11-18T12:59:42;11.70;99.90
3758;DHT22;1894;51.038;13.692;2023-11-18T13:02:11;11.40;99.90
3758;DHT22;1894;51.038;13.692;2023-11-18T13:04:47;10.70;99.90
3758;DHT22;1894;51.038;13.692;2023-11-18T13:07:17;9.90;99.90
3758;DHT22;1894;51.038;13.692;2023-11-18T13:09:46;9.80;99.90
3758;DHT22;1894;51.038;13.692;2023-11-18T13:12:14;9.80;99.90
3758;DHT22;1894;51.038;13.692;2023-11-18T13:14:42;9.70;99.90
3758;DHT22;1894;51.038;13.692;2023-11-18T13:17:12;9.20;99.90
3758;DHT22;1894;51.038;13.692;2023-11-18T13:19:40;8.90;99.90
3758;DHT22;1894;51.038;13.692;2023-11-18T13:22:11;9.10;99.90
3758;DHT22;1894;51.038;13.692;2023-11-18T13:24:40;9.10;99.90
3758;DHT22;1894;51.038;13.692;2023-11-18T13:27:18;9.30;99.90
3758;DHT22;1894;51.038;13.692;2023-11-18T13:29:47;9.40;99.90
3758;DHT22;1894;51.038;13.692;2023-11-18T13:32:20;8.80;99.90
3758;DHT22;1894;51.038;13.692;2023-11-18T13:34:52;8.50;99.90
3758;DHT22;1894;51.038;13.692;2023-11-18T13:37:20;8.40;99.90
3758;DHT22;1894;51.038;13.692;2023-11-18T13:39:55;8.70;99.90
3758;DHT22;1894;51.038;13.692;2023-11-18T13:42:26;8.50;99.90
3758;DHT22;1894;51.038;13.692;2023-11-18T13:45:03;8.80;99.90
3758;DHT22;1894;51.038;13.692;2023-11-18T13:47:38;8.80;99.90
3758;DHT22;1894;51.038;13.692;2023-11-18T13:50:07;9.10;99.90
3758;DHT22;1894;51.038;13.692;2023-11-18T13:52:36;9.30;99.90
3758;DHT22;1894;51.038;13.692;2023-11-18T13:55:06;9.30;99.90
3758;DHT22;1894;51.038;13.692;2023-11-18T13:57:35;9.10;99.90
3758;DHT22;1894;51.038;13.692;2023-11-18T14:00:03;8.60;99.90
3758;DHT22;1894;51.038;13.692;2023-11-18T14:02:34;8.30;99.90
3758;DHT22;1894;51.038;13.692;2023-11-18T14:05:03;8.00;99.90
3758;DHT22;1894;51.038;13.692;2023-11-18T14:07:37;8.10;99.90
3758;DHT22;1894;51.038;13.692;2023-11-18T14:10:06;8.10;99.90
3758;DHT22;1894;51.038;13.692;2023-11-18T14:12:35;8.00;99.90
3758;DHT22;1894;51.038;13.692;2023-11-18T14:15:02;8.10;99.90
3758;DHT22;1894;51.038;13.692;2023-11-18T14:17:31;8.20;99.90
3758;DHT22;1894;51.038;13.692;2023-11-18T14:19:59;8.30;99.90
3758;DHT22;1894;51.038;13.692;2023-11-18T14:22:26;8.40;99.90
3758;DHT22;1894;51.038;13.692;2023-11-18T14:24:53;8.20;99.90
3758;DHT22;1894;51.038;13.692;2023-11-18T14:27:20;8.20;99.90
3758;DHT22;1894;51.038;13.692;2023-11-18T14:29:48;8.20;99.90
3758;DHT22;1894;51.038;13.692;2023-11-18T14:32:15;8.10;99.90
3758;DHT22;1894;51.038;13.692;2023-11-18T14:34:42;8.10;99.90
3758;DHT22;1894;51.038;13.692;2023-11-18T14:37:09;8.10;99.90
3758;DHT22;1894;51.038;13.692;2023-11-18T14:39:37;8.10;99.90
3758;DHT22;1894;51.038;13.692;2023-11-18T14:42:05;7.90;99.90
3758;DHT22;1894;51.038;13.692;2023-11-18T14:44:32;7.90;99.90
3758;DHT22;1894;51.038;13.692;2023-11-18T14:47:01;7.70;99.90
3758;DHT22;1894;51.038;13.692;2023-11-18T14:49:28;7.60;99.90
3758;DHT22;1894;51.038;13.692;2023-11-18T14:51:56;7.50;99.90
3758;DHT22;1894;51.038;13.692;2023-11-18T14:54:23;7.50;99.90
3758;DHT22;1894;51.038;13.692;2023-11-18T14:56:51;7.30;99.90
3758;DHT22;1894;51.038;13.692;2023-11-18T14:59:18;7.20;99.90
3758;DHT22;1894;51.038;13.692;2023-11-18T15:01:47;7.00;99.90
3758;DHT22;1894;51.038;13.692;2023-11-18T15:04:15;7.00;99.90
3758;DHT22;1894;51.038;13.692;2023-11-18T15:06:42;6.90;99.90
3758;DHT22;1894;51.038;13.692;2023-11-18T15:09:10;6.70;99.90
3758;DHT22;1894;51.038;13.692;2023-11-18T15:11:38;6.50;99.90
3758;DHT22;1894;51.038;13.692;2023-11-18T15:14:05;6.30;99.90
3758;DHT22;1894;51.038;13.692;2023-11-18T15:16:34;6.20;99.90
3758;DHT22;1894;51.038;13.692;2023-11-18T15:19:03;6.00;99.90
3758;DHT22;1894;51.038;13.692;2023-11-18T15:21:30;5.90;99.90
3758;DHT22;1894;51.038;13.692;2023-11-18T15:23:57;5.80;99.90
3758;DHT22;1894;51.038;13.692;2023-11-18T15:26:28;5.70;99.90
3758;DHT22;1894;51.038;13.692;2023-11-18T15:28:58;5.60;99.90
3758;DHT22;1894;51.038;13.692;2023-11-18T15:31:26;5.40;99.90
3758;DHT22;1894;51.038;13.692;2023-11-18T15:33:56;5.30;99.90
3758;DHT22;1894;51.038;13.692;2023-11-18T15:36:26;5.20;99.90
3758;DHT22;1894;51.038;13.692;2023-11-18T15:38:53;5.20;99.90
3758;DHT22;1894;51.038;13.692;2023-11-18T15:41:21;5.00;99.90
3758;DHT22;1894;51.038;13.692;2023-11-18T15:43:49;5.00;99.90
3758;DHT22;1894;51.038;13.692;2023-11-18T15:46:16;4.90;99.90
3758;DHT22;1894;51.038;13.692;2023-11-18T15:48:44;4.80;99.90
3758;DHT22;1894;51.038;13.692;2023-11-18T15:51:12;4.70;99.90
3758;DHT22;1894;51.038;13.692;2023-11-18T15:53:42;4.70;99.90
3758;DHT22;1894;51.038;13.692;2023-11-18T15:56:10;4.60;99.90
3758;DHT22;1894;51.038;13.692;2023-11-18T15:58:38;4.60;99.90
3758;DHT22;1894;51.038;13.692;2023-11-18T16:01:05;4.60;99.90
3758;DHT22;1894;51.038;13.692;2023-11-18T16:03:32;4.60;99.90
3758;DHT22;1894;51.038;13.692;2023-11-18T16:06:00;4.60;99.90
3758;DHT22;1894;51.038;13.692;2023-11-18T16:08:28;4.50;99.90
3758;DHT22;1894;51.038;13.692;2023-11-18T16:10:55;4.50;99.90
3758;DHT22;1894;51.038;13.692;2023-11-18T16:13:23;4.50;99.90
3758;DHT22;1894;51.038;13.692;2023-11-18T16:15:50;4.50;99.90
3758;DHT22;1894;51.038;13.692;2023-11-18T16:18:17;4.40;99.90
3758;DHT22;1894;51.038;13.692;2023-11-18T16:20:44;4.40;99.90
3758;DHT22;1894;51.038;13.692;2023-11-18T16:23:12;4.30;99.90
3758;DHT22;1894;51.038;13.692;2023-11-18T16:25:39;4.30;99.90
3758;DHT22;1894;51.038;13.692;2023-11-18T16:28:07;4.30;99.90
3758;DHT22;1894;51.038;13.692;2023-11-18T16:30:35;4.30;99.90
3758;DHT22;1894;51.038;13.692;2023-11-18T16:33:04;4.30;99.90
3758;DHT22;1894;51.038;13.692;2023-11-18T16:35:32;4.30;99.90
3758;DHT22;1894;51.038;13.692;2023-11-18T16:37:59;4.30;99.90
3758;DHT22;1894;51.038;13.692;2023-11-18T16:40:28;4.30;99.90
3758;DHT22;1894;51.038;13.692;2023-11-18T16:42:56;4.20;99.90
3758;DHT22;1894;51.038;13.692;2023-11-18T16:45:26;4.30;99.90
3758;DHT22;1894;51.038;13.692;2023-11-18T16:47:54;4.30;99.90
3758;DHT22;1894;51.038;13.692;2023-11-18T16:50:23;4.30;99.90
3758;DHT22;1894;51.038;13.692;2023-11-18T16:52:52;4.40;99.90
3758;DHT22;1894;51.038;13.692;2023-11-18T16:55:21;4.40;99.90